Time;durP1;ratioP1;P1;durP2;ratioP2;P2;SDS_P1;SDS_P2;PMS_P1;PMS_P2;Temp;Humidity;BMP_temperature;BMP_pressure;BME280_temperature;BME280_humidity;BME280_pressure;Samples;Min_cycle;Max_cycle;Signal;HPM_P1;HPM_P2
2022/11/17 00:00:42;;;;;;;2.80;0.57;;;23.00;47.00;;;;;;5002751;28;20129;-65
2022/11/17 00:03:16;;;;;;;2.78;0.70;;;23.30;44.80;;;;;;5004782;28;20587;-65
2022/11/17 00:05:44;;;;;;;3.40;0.98;;;23.10;43.70;;;;;;5004392;28;20399;-65
2022/11/17 00:08:11;;;;;;;1.67;0.68;;;23.10;46.60;;;;;;5005906;28;20023;-65
2022/11/17 00:10:38;;;;;;;1.45;0.60;;;23.20;45.80;;;;;;5003350;28;20036;-65
2022/11/17 00:15:50;;;;;;;1.85;0.70;;;24.00;46.00;;;;;;5002916;28;20045;-66
2022/11/17 00:21:20;;;;;;;2.03;1.00;;;23.90;46.20;;;;;;5006276;28;20080;-66
2022/11/17 00:23:48;;;;;;;1.23;0.40;;;24.20;43.00;;;;;;5000444;28;20038;-66
2022/11/17 00:26:27;;;;;;;4.60;0.40;;;24.30;45.80;;;;;;5004108;28;20171;-66
2022/11/17 00:28:57;;;;;;;1.33;0.60;;;24.30;42.00;;;;;;4997209;28;20108;-65
2022/11/17 00:34:15;;;;;;;2.50;0.88;;;23.70;44.80;;;;;;5006591;28;20048;-66
2022/11/17 00:36:48;;;;;;;2.88;0.70;;;24.30;48.60;;;;;;5001016;28;20030;-66
2022/11/17 00:39:17;;;;;;;1.38;0.70;;;24.40;45.70;;;;;;5002416;28;20026;-66
2022/11/17 00:41:44;;;;;;;1.67;0.60;;;24.50;43.50;;;;;;5002194;28;20023;-65
2022/11/17 00:44:12;;;;;;;2.22;0.60;;;24.30;44.90;;;;;;4996917;28;20045;-66
2022/11/17 00:46:40;;;;;;;1.00;0.45;;;24.20;45.60;;;;;;5000813;28;20108;-65
2022/11/17 00:49:08;;;;;;;2.00;0.40;;;24.50;45.70;;;;;;5007398;28;20091;-66
2022/11/17 00:51:37;;;;;;;2.50;0.60;;;24.70;43.60;;;;;;5015296;28;20026;-65
2022/11/17 00:54:07;;;;;;;2.10;0.68;;;24.60;43.90;;;;;;5008168;28;20038;-66
2022/11/17 00:56:34;;;;;;;0.50;0.30;;;24.50;44.00;;;;;;5008934;28;20033;-66
2022/11/17 00:59:01;;;;;;;1.30;1.05;;;24.00;43.90;;;;;;5010838;28;20146;-65
2022/11/17 01:01:29;;;;;;;1.33;0.30;;;24.00;45.00;;;;;;5006752;28;20027;-65
2022/11/17 01:04:04;;;;;;;1.85;0.50;;;23.70;43.00;;;;;;5013376;28;20080;-66
2022/11/17 01:06:38;;;;;;;1.15;0.38;;;23.10;43.00;;;;;;5022402;28;20025;-66
2022/11/17 01:09:10;;;;;;;1.03;0.40;;;23.00;45.10;;;;;;4998966;28;20033;-66
2022/11/17 01:11:37;;;;;;;0.50;0.30;;;23.00;45.70;;;;;;5001407;28;20042;-66
2022/11/17 01:14:05;;;;;;;2.28;0.68;;;23.60;47.40;;;;;;5003773;28;20025;-66
2022/11/17 01:16:33;;;;;;;0.95;0.43;;;24.00;45.60;;;;;;5004930;28;20018;-65
2022/11/17 01:19:01;;;;;;;1.63;0.40;;;23.40;42.30;;;;;;4998597;28;20030;-65
2022/11/17 01:21:30;;;;;;;0.82;0.40;;;22.80;44.10;;;;;;5005023;28;20018;-66
2022/11/17 01:24:00;;;;;;;4.45;0.45;;;22.20;45.10;;;;;;4998747;28;20030;-66
2022/11/17 01:26:33;;;;;;;3.53;0.32;;;22.40;47.50;;;;;;5001944;28;20022;-66
2022/11/17 01:29:02;;;;;;;6.03;0.60;;;22.70;45.60;;;;;;5001514;28;21058;-64
2022/11/17 01:31:32;;;;;;;3.22;0.43;;;23.10;45.20;;;;;;5001047;28;20298;-66
2022/11/17 01:34:00;;;;;;;2.90;0.65;;;23.70;43.00;;;;;;5003100;28;20053;-67
2022/11/17 01:37:17;;;;;;;1.98;0.55;;;23.80;47.40;;;;;;5005296;28;20029;-66
2022/11/17 01:39:18;;;;;;;2.58;0.50;;;24.10;41.80;;;;;;5003349;28;20557;-65
2022/11/17 01:41:45;;;;;;;1.58;0.50;;;24.30;45.70;;;;;;5006344;28;20037;-68
2022/11/17 01:44:49;;;;;;;8.13;0.50;;;24.70;45.20;;;;;;5005271;28;20041;-66
2022/11/17 01:47:43;;;;;;;3.05;0.28;;;25.00;40.10;;;;;;5005343;28;20052;-67
2022/11/17 01:50:26;;;;;;;1.00;0.30;;;25.20;43.00;;;;;;5003613;28;20045;-66
2022/11/17 01:52:58;;;;;;;1.67;0.20;;;25.30;41.40;;;;;;5015623;28;20385;-68
2022/11/17 01:55:31;;;;;;;0.38;0.20;;;25.00;43.30;;;;;;5017460;28;20061;-67
2022/11/17 01:58:05;;;;;;;0.60;0.35;;;25.10;42.30;;;;;;5027604;28;20022;-68
2022/11/17 02:00:32;;;;;;;0.40;0.13;;;25.20;42.20;;;;;;5018436;28;20108;-70
2022/11/17 02:03:00;;;;;;;2.17;0.40;;;25.20;40.80;;;;;;5027343;28;20102;-71
2022/11/17 02:05:59;;;;;;;0.85;0.30;;;25.60;40.90;;;;;;5009426;28;20037;-67
2022/11/17 02:08:31;;;;;;;4.57;0.55;;;26.20;42.90;;;;;;4991079;28;20042;-67
2022/11/17 02:11:00;;;;;;;1.75;0.43;;;25.70;39.90;;;;;;5004526;28;20039;-66
2022/11/17 02:13:28;;;;;;;1.95;0.40;;;24.90;40.80;;;;;;5007249;28;20434;-64
2022/11/17 02:15:58;;;;;;;0.93;0.30;;;24.20;40.30;;;;;;5007369;28;20038;-65
2022/11/17 02:18:25;;;;;;;1.10;0.47;;;24.00;43.30;;;;;;5007948;28;20053;-70
2022/11/17 02:21:19;;;;;;;2.55;0.65;;;24.60;48.00;;;;;;5007966;28;20053;-65
2022/11/17 02:23:55;;;;;;;1.75;0.47;;;25.20;41.70;;;;;;5026035;28;20045;-66
2022/11/17 02:26:49;;;;;;;0.45;0.20;;;25.50;42.20;;;;;;5009606;28;20033;-64
2022/11/17 02:29:22;;;;;;;0.93;0.33;;;25.70;38.30;;;;;;5004029;28;20029;-65
2022/11/17 02:32:02;;;;;;;0.60;0.30;;;25.00;40.60;;;;;;5004006;28;20315;-64
2022/11/17 02:34:37;;;;;;;0.40;0.30;;;24.90;43.10;;;;;;5003745;28;20783;-68
2022/11/17 02:37:25;;;;;;;2.15;0.60;;;25.00;41.60;;;;;;5006986;28;20067;-65
2022/11/17 02:40:26;;;;;;;1.92;0.30;;;25.30;42.50;;;;;;5004432;28;20026;-67
2022/11/17 02:45:56;;;;;;;1.67;0.70;;;25.40;40.70;;;;;;5001938;28;20545;-67
2022/11/17 02:48:28;;;;;;;3.35;0.90;;;25.30;43.40;;;;;;5002891;28;20030;-65
2022/11/17 02:50:58;;;;;;;6.20;1.20;;;24.30;44.00;;;;;;5004638;28;20033;-68
2022/11/17 02:53:27;;;;;;;3.85;0.95;;;23.30;45.70;;;;;;5003294;28;20463;-70
2022/11/17 02:55:58;;;;;;;5.28;0.95;;;22.00;47.10;;;;;;5010752;28;20124;-67
2022/11/17 02:58:25;;;;;;;6.38;0.80;;;21.40;48.90;;;;;;5009753;28;20018;-67
2022/11/17 03:01:28;;;;;;;3.85;0.85;;;21.00;50.30;;;;;;5007287;28;20842;-70
2022/11/17 03:04:11;;;;;;;1.50;0.70;;;21.00;50.20;;;;;;5009131;28;20038;-71
2022/11/17 03:06:59;;;;;;;5.05;1.20;;;20.60;52.20;;;;;;5005837;28;20041;-70
2022/11/17 03:09:58;;;;;;;4.45;1.10;;;20.40;51.40;;;;;;5006025;28;20475;-73
2022/11/17 03:12:46;;;;;;;3.95;1.23;;;20.30;52.20;;;;;;4989952;28;20054;-73
2022/11/17 03:15:37;;;;;;;4.63;0.70;;;20.10;53.50;;;;;;5003878;28;21524;-72
2022/11/17 03:18:11;;;;;;;4.07;1.15;;;20.00;53.80;;;;;;5003060;28;20073;-70
2022/11/17 03:20:41;;;;;;;;;;;20.10;53.70;;;;;;5002637;28;20405;-72
2022/11/17 03:23:20;;;;;;;6.60;1.00;;;20.00;53.70;;;;;;4995997;28;19977;-72
2022/11/17 03:25:53;;;;;;;3.42;0.75;;;20.30;53.90;;;;;;5004445;28;20034;-73
2022/11/17 03:28:26;;;;;;;7.50;0.90;;;20.70;55.20;;;;;;5025885;28;20460;-74
2022/11/17 03:30:54;;;;;;;5.40;1.38;;;21.00;52.80;;;;;;5009043;28;20034;-71
2022/11/17 03:33:24;;;;;;;8.73;1.10;;;20.90;51.80;;;;;;5005361;28;20060;-73
2022/11/17 03:36:07;;;;;;;5.35;0.85;;;20.60;52.80;;;;;;5003484;28;20402;-72
2022/11/17 03:38:40;;;;;;;3.08;1.30;;;20.50;53.30;;;;;;4998581;28;20057;-71
2022/11/17 03:41:12;;;;;;;5.57;1.10;;;20.50;52.30;;;;;;5000873;28;20318;-73
2022/11/17 03:43:42;;;;;;;2.78;1.00;;;20.60;53.20;;;;;;5003937;28;20033;-74
2022/11/17 03:46:14;;;;;;;1.88;0.90;;;20.90;53.20;;;;;;5003093;28;20049;-72
2022/11/17 03:48:59;;;;;;;4.03;0.85;;;21.40;51.80;;;;;;5008901;28;20050;-73
2022/11/17 03:51:30;;;;;;;1.80;0.95;;;21.50;51.90;;;;;;5024623;28;20025;-71
2022/11/17 03:53:57;;;;;;;1.75;1.00;;;21.40;52.40;;;;;;5009082;28;20026;-69
2022/11/17 03:56:55;;;;;;;5.70;0.90;;;21.50;52.30;;;;;;5011231;28;20058;-71
2022/11/17 03:59:30;;;;;;;7.13;1.00;;;21.10;51.80;;;;;;5007831;28;20054;-71
2022/11/17 04:01:58;;;;;;;9.05;1.17;;;20.50;53.30;;;;;;5004899;28;20032;-70
2022/11/17 04:05:04;;;;;;;2.85;1.15;;;20.60;53.20;;;;;;5011012;28;20059;-71
2022/11/17 04:07:13;;;;;;;6.45;1.08;;;21.00;53.70;;;;;;5006256;28;20033;-71
2022/11/17 04:09:40;;;;;;;2.30;0.95;;;21.70;52.60;;;;;;5001739;28;20396;-72
2022/11/17 04:17:43;;;;;;;2.65;0.90;;;21.60;52.90;;;;;;4988090;28;20034;-71
2022/11/17 04:20:11;;;;;;;4.10;0.80;;;21.60;52.30;;;;;;5025271;28;20493;-71
2022/11/17 04:22:38;;;;;;;4.25;0.98;;;21.70;52.60;;;;;;5015514;28;20030;-71
2022/11/17 04:25:05;;;;;;;3.75;0.90;;;21.60;52.20;;;;;;5019202;28;20030;-70
2022/11/17 04:30:18;;;;;;;3.45;0.77;;;21.70;52.60;;;;;;4996808;28;20043;-70
2022/11/17 04:32:45;;;;;;;4.85;0.85;;;21.90;52.10;;;;;;5021949;28;20121;-71
2022/11/17 04:35:12;;;;;;;5.88;1.48;;;22.00;52.00;;;;;;5017417;28;20109;-71
2022/11/17 04:37:39;;;;;;;3.30;1.08;;;21.10;52.60;;;;;;5017561;28;20029;-72
2022/11/17 04:40:10;;;;;;;3.30;1.00;;;20.60;54.20;;;;;;5019041;28;20050;-71
2022/11/17 04:42:37;;;;;;;4.53;0.85;;;20.40;54.20;;;;;;5015738;28;20026;-72
2022/11/17 04:45:05;;;;;;;2.22;0.93;;;20.30;54.00;;;;;;5013476;28;20037;-71
2022/11/17 04:47:32;;;;;;;7.80;0.82;;;20.10;54.90;;;;;;5016810;28;20017;-70
2022/11/17 04:49:59;;;;;;;5.28;0.95;;;20.40;55.10;;;;;;5015420;28;20696;-72
2022/11/17 04:52:27;;;;;;;3.70;0.60;;;20.00;54.70;;;;;;5011792;28;20017;-71
2022/11/17 04:54:54;;;;;;;1.95;0.60;;;19.80;55.90;;;;;;5007289;28;20054;-71
2022/11/17 04:57:21;;;;;;;4.80;0.73;;;19.80;56.50;;;;;;5011274;28;20463;-71
2022/11/17 04:59:48;;;;;;;4.88;1.05;;;19.80;56.80;;;;;;5004895;28;20033;-71
2022/11/17 05:02:15;;;;;;;2.38;0.90;;;19.80;56.40;;;;;;5013312;28;20018;-70
2022/11/17 05:05:02;;;;;;;3.42;1.08;;;20.10;55.50;;;;;;5023741;28;20064;-72
2022/11/17 05:07:30;;;;;;;5.28;0.75;;;20.20;55.60;;;;;;5007244;28;20080;-70
2022/11/17 05:09:57;;;;;;;2.17;0.80;;;20.00;56.40;;;;;;5014306;28;20029;-71
2022/11/17 05:15:09;;;;;;;3.65;0.98;;;19.40;57.40;;;;;;5005369;28;20081;-71
2022/11/17 05:17:36;;;;;;;3.97;1.25;;;19.20;57.10;;;;;;5010993;28;20029;-72
2022/11/17 05:20:04;;;;;;;4.30;0.85;;;19.20;57.90;;;;;;5012100;28;20036;-71
2022/11/17 05:25:16;;;;;;;2.33;0.70;;;19.20;57.70;;;;;;5019595;28;20518;-69
2022/11/17 05:27:44;;;;;;;5.88;1.20;;;19.30;57.80;;;;;;5026165;28;20052;-70
2022/11/17 05:30:11;;;;;;;2.58;1.02;;;19.40;56.90;;;;;;5009302;28;20049;-71
2022/11/17 05:32:39;;;;;;;4.43;0.70;;;19.80;57.90;;;;;;5017984;28;20121;-70
2022/11/17 05:35:06;;;;;;;2.45;1.08;;;20.20;55.90;;;;;;5022263;28;20041;-69
2022/11/17 05:37:34;;;;;;;4.50;0.95;;;20.40;56.00;;;;;;5026682;28;20029;-70
2022/11/17 05:40:01;;;;;;;5.68;1.08;;;20.50;55.40;;;;;;5014703;28;20105;-70
2022/11/17 05:42:28;;;;;;;3.25;0.80;;;20.70;54.90;;;;;;5012057;28;20153;-70
2022/11/17 05:44:55;;;;;;;3.83;0.60;;;20.70;55.20;;;;;;5015783;28;20045;-70
2022/11/17 05:47:22;;;;;;;2.97;1.15;;;20.80;54.80;;;;;;5015930;28;20025;-71
2022/11/17 05:49:50;;;;;;;4.60;1.05;;;21.00;54.00;;;;;;5012716;28;20544;-70
2022/11/17 05:52:17;;;;;;;4.72;0.80;;;21.10;54.50;;;;;;5009926;28;20022;-72
2022/11/17 05:54:44;;;;;;;1.92;0.57;;;21.00;53.80;;;;;;5015005;28;20510;-69
2022/11/17 05:57:22;;;;;;;3.65;0.70;;;20.90;53.30;;;;;;5010807;28;20030;-70
2022/11/17 05:59:56;;;;;;;3.65;0.75;;;20.70;54.10;;;;;;5022516;28;20025;-71
2022/11/17 06:02:28;;;;;;;5.10;0.98;;;20.50;53.90;;;;;;5014304;28;20017;-70
2022/11/17 06:04:56;;;;;;;4.68;1.27;;;20.60;53.80;;;;;;5021408;28;20105;-70
2022/11/17 06:07:23;;;;;;;2.20;0.70;;;20.70;54.70;;;;;;5016105;28;20104;-69
2022/11/17 06:09:51;;;;;;;3.92;0.85;;;20.80;53.70;;;;;;5013684;28;20532;-69
2022/11/17 06:12:18;;;;;;;3.53;1.00;;;20.90;54.30;;;;;;4997042;28;20017;-70
2022/11/17 06:14:45;;;;;;;2.22;0.60;;;20.80;54.30;;;;;;5019756;28;20033;-67
2022/11/17 06:17:21;;;;;;;3.78;0.60;;;21.10;54.30;;;;;;5013369;28;20360;-70
2022/11/17 06:20:15;;;;;;;3.45;1.10;;;21.20;54.50;;;;;;5013459;28;20049;-69
2022/11/17 06:22:42;;;;;;;3.15;0.65;;;21.30;54.40;;;;;;5005759;28;20053;-69
2022/11/17 06:25:10;;;;;;;8.35;0.88;;;21.30;54.60;;;;;;5012181;28;20091;-70
2022/11/17 06:27:40;;;;;;;4.90;0.75;;;21.50;54.50;;;;;;5014276;28;20051;-71
2022/11/17 06:30:08;;;;;;;2.75;0.85;;;21.30;53.80;;;;;;5016151;28;20530;-72
2022/11/17 06:32:37;;;;;;;4.63;1.00;;;20.80;54.90;;;;;;5010464;28;20041;-71
2022/11/17 06:35:07;;;;;;;7.32;1.50;;;20.70;55.20;;;;;;5012151;28;20022;-71
2022/11/17 06:37:35;;;;;;;3.95;1.13;;;20.60;55.90;;;;;;5016584;28;20022;-70
2022/11/17 06:40:02;;;;;;;2.30;0.80;;;20.50;55.50;;;;;;5010035;28;20030;-71
2022/11/17 06:45:14;;;;;;;2.10;0.75;;;20.10;56.60;;;;;;5006230;28;20108;-69
2022/11/17 06:47:42;;;;;;;4.20;0.85;;;19.80;57.20;;;;;;5006375;28;20029;-70
2022/11/17 06:50:10;;;;;;;4.35;0.60;;;19.60;57.70;;;;;;5005815;28;20123;-69
2022/11/17 06:52:38;;;;;;;2.53;0.68;;;19.50;58.80;;;;;;5003396;28;20022;-71
2022/11/17 06:55:05;;;;;;;2.92;0.75;;;19.30;59.00;;;;;;5005080;28;20495;-70
2022/11/17 06:57:33;;;;;;;1.67;0.60;;;19.20;59.30;;;;;;5000745;28;20033;-69
2022/11/17 07:00:00;;;;;;;3.17;0.65;;;18.90;59.70;;;;;;5001065;28;20644;-70
2022/11/17 07:02:28;;;;;;;1.27;0.52;;;18.60;61.10;;;;;;5004194;28;20029;-70
2022/11/17 07:04:55;;;;;;;3.92;0.60;;;18.40;61.30;;;;;;5013706;28;20046;-70
2022/11/17 07:07:22;;;;;;;5.30;0.70;;;18.30;62.00;;;;;;5002580;28;20568;-70
2022/11/17 07:09:49;;;;;;;3.55;0.52;;;18.10;62.20;;;;;;5011186;28;20156;-72
2022/11/17 07:12:16;;;;;;;2.65;0.65;;;18.00;62.40;;;;;;5004050;28;20108;-72
2022/11/17 07:14:44;;;;;;;1.70;0.55;;;18.20;63.10;;;;;;5018057;28;20478;-72
2022/11/17 07:17:11;;;;;;;2.58;0.73;;;18.20;62.20;;;;;;5017322;28;20026;-72
2022/11/17 07:19:38;;;;;;;6.22;1.33;;;18.10;62.30;;;;;;5014326;28;20014;-74
2022/11/17 07:22:05;;;;;;;3.22;0.57;;;18.10;63.10;;;;;;5023144;28;20095;-74
2022/11/17 07:24:33;;;;;;;6.38;0.63;;;18.00;62.30;;;;;;5007429;28;20038;-73
2022/11/17 07:27:00;;;;;;;3.42;0.70;;;18.00;63.50;;;;;;5001825;28;20083;-73
2022/11/17 07:29:29;;;;;;;4.72;0.95;;;18.00;64.30;;;;;;5019254;28;20038;-69
2022/11/17 07:31:56;;;;;;;3.17;0.70;;;18.00;63.90;;;;;;5007801;28;20046;-69
2022/11/17 07:34:23;;;;;;;2.33;0.73;;;17.90;63.60;;;;;;5014386;28;20026;-70
2022/11/17 07:36:51;;;;;;;2.90;0.80;;;17.80;64.40;;;;;;5009782;28;20092;-70
2022/11/17 07:39:18;;;;;;;3.20;0.80;;;17.80;64.10;;;;;;5004852;28;20036;-70
2022/11/17 07:41:45;;;;;;;6.97;1.58;;;17.60;64.60;;;;;;5003349;28;20026;-69
2022/11/17 07:44:12;;;;;;;2.85;0.70;;;17.50;64.70;;;;;;5004215;28;20041;-71
2022/11/17 07:46:39;;;;;;;7.15;0.85;;;17.40;64.60;;;;;;5003836;28;20135;-70
2022/11/17 07:49:06;;;;;;;3.78;0.63;;;17.40;65.00;;;;;;4998370;28;20040;-70
2022/11/17 07:51:34;;;;;;;2.22;0.68;;;17.30;65.20;;;;;;5011694;28;20474;-70
2022/11/17 07:54:01;;;;;;;1.60;0.60;;;17.20;65.50;;;;;;5004846;28;20026;-69
2022/11/17 07:56:28;;;;;;;4.50;0.70;;;17.10;66.70;;;;;;5005595;28;20130;-70
2022/11/17 07:58:55;;;;;;;2.45;1.33;;;17.00;67.30;;;;;;5003758;28;20153;-70
2022/11/17 08:01:26;;;;;;;3.15;0.70;;;16.90;67.80;;;;;;5003693;28;20368;-70
2022/11/17 08:03:54;;;;;;;3.17;0.80;;;16.70;67.50;;;;;;5009460;28;20076;-69
2022/11/17 08:06:22;;;;;;;3.05;0.70;;;16.60;67.70;;;;;;5010667;28;20790;-71
2022/11/17 08:08:50;;;;;;;6.90;0.75;;;16.50;68.80;;;;;;5005726;28;20037;-70
2022/11/17 08:11:18;;;;;;;4.30;0.90;;;16.50;67.70;;;;;;5002313;28;20092;-67
2022/11/17 08:13:46;;;;;;;2.38;0.60;;;16.40;67.70;;;;;;5004599;28;20022;-68
2022/11/17 08:16:13;;;;;;;2.80;0.60;;;16.30;68.40;;;;;;5006142;28;20041;-70
2022/11/17 08:18:40;;;;;;;4.88;0.90;;;16.20;68.60;;;;;;5011418;28;20030;-70
2022/11/17 08:21:13;;;;;;;1.15;0.43;;;16.10;68.90;;;;;;5005589;28;20025;-70
2022/11/17 08:23:41;;;;;;;3.50;1.13;;;16.00;69.60;;;;;;5009731;28;20398;-69
2022/11/17 08:26:11;;;;;;;3.15;0.60;;;15.90;70.20;;;;;;5009169;28;20116;-70
2022/11/17 08:28:38;;;;;;;5.60;0.80;;;15.90;71.00;;;;;;5010557;28;20037;-68
2022/11/17 08:31:07;;;;;;;5.00;0.80;;;15.80;71.40;;;;;;5012609;28;20132;-68
2022/11/17 08:33:34;;;;;;;7.22;2.42;;;15.70;71.50;;;;;;5006612;28;20115;-68
2022/11/17 08:36:08;;;;;;;3.53;1.20;;;15.60;72.20;;;;;;5011552;28;20033;-69
2022/11/17 08:38:36;;;;;;;4.30;1.00;;;15.60;72.80;;;;;;5013108;28;20029;-69
2022/11/17 08:41:06;;;;;;;2.55;0.60;;;15.50;73.20;;;;;;5016385;28;20478;-70
2022/11/17 08:43:33;;;;;;;4.75;0.80;;;15.40;73.80;;;;;;5011209;28;20426;-70
2022/11/17 08:46:03;;;;;;;5.97;0.80;;;15.30;74.80;;;;;;5004238;28;20081;-70
2022/11/17 08:48:31;;;;;;;2.90;0.77;;;15.30;75.60;;;;;;5007180;28;20092;-68
2022/11/17 08:51:04;;;;;;;4.35;0.73;;;15.20;76.10;;;;;;5015733;28;20033;-67
2022/11/17 08:53:34;;;;;;;5.03;0.70;;;15.10;77.60;;;;;;5011455;28;20025;-68
2022/11/17 08:56:05;;;;;;;3.47;0.80;;;15.10;77.80;;;;;;5021490;28;20029;-69
2022/11/17 08:58:37;;;;;;;3.10;1.00;;;15.00;78.90;;;;;;5011836;28;20045;-69
2022/11/17 09:01:08;;;;;;;9.25;1.52;;;15.00;79.90;;;;;;5021392;28;20723;-70
2022/11/17 09:03:35;;;;;;;2.90;0.60;;;15.00;80.70;;;;;;5012146;28;20399;-68
2022/11/17 09:06:04;;;;;;;5.57;0.75;;;14.90;81.30;;;;;;5008288;28;20033;-69
2022/11/17 09:08:32;;;;;;;15.60;1.65;;;14.90;82.00;;;;;;5005443;28;20386;-68
2022/11/17 09:11:11;;;;;;;4.15;0.73;;;14.90;82.70;;;;;;5009181;28;20030;-68
2022/11/17 09:13:39;;;;;;;5.28;1.02;;;14.80;83.30;;;;;;5006779;28;20048;-70
2022/11/17 09:16:10;;;;;;;6.72;0.82;;;14.80;84.10;;;;;;5008693;28;20025;-70
2022/11/17 09:18:39;;;;;;;5.82;0.90;;;14.70;85.30;;;;;;5017620;28;20026;-70
2022/11/17 09:21:11;;;;;;;4.00;0.77;;;14.60;86.20;;;;;;5001436;28;20056;-68
2022/11/17 09:23:39;;;;;;;8.05;1.05;;;14.50;87.40;;;;;;5010148;28;20084;-68
2022/11/17 09:26:18;;;;;;;4.07;1.13;;;14.40;89.60;;;;;;5006582;28;20117;-67
2022/11/17 09:28:49;;;;;;;4.25;0.98;;;14.30;89.90;;;;;;5010583;28;20116;-66
2022/11/17 09:31:19;;;;;;;6.93;1.10;;;14.30;90.50;;;;;;5015654;28;20496;-67
2022/11/17 09:33:47;;;;;;;5.40;1.63;;;14.20;91.00;;;;;;5009707;28;20029;-65
2022/11/17 09:36:16;;;;;;;3.83;0.82;;;14.20;91.40;;;;;;5021776;28;20356;-67
2022/11/17 09:38:43;;;;;;;5.07;0.80;;;14.10;91.80;;;;;;5013375;28;20477;-68
2022/11/17 09:41:33;;;;;;;5.57;1.48;;;14.10;92.40;;;;;;5013329;28;20022;-65
2022/11/17 09:44:38;;;;;;;2.83;0.75;;;14.10;92.90;;;;;;5014306;28;20034;-68
2022/11/17 09:47:26;;;;;;;4.82;1.17;;;14.10;93.00;;;;;;5005025;28;20455;-67
2022/11/17 09:50:02;;;;;;;4.47;1.02;;;14.10;93.20;;;;;;5015524;28;20022;-67
2022/11/17 09:52:54;;;;;;;5.05;0.95;;;14.20;93.30;;;;;;5017921;28;20502;-67
2022/11/17 09:55:32;;;;;;;4.45;0.95;;;14.20;93.10;;;;;;5019078;28;20033;-66
2022/11/17 09:58:30;;;;;;;3.30;0.90;;;14.20;93.20;;;;;;5020674;28;20029;-68
2022/11/17 10:00:57;;;;;;;3.00;0.75;;;14.10;93.40;;;;;;5011888;28;20125;-68
2022/11/17 10:03:32;;;;;;;7.57;1.90;;;14.00;94.00;;;;;;5015377;28;20022;-67
2022/11/17 10:06:01;;;;;;;9.88;1.35;;;14.00;94.40;;;;;;5017490;28;20451;-67
2022/11/17 10:08:59;;;;;;;8.07;1.40;;;14.00;94.40;;;;;;5016518;28;20018;-66
2022/11/17 10:11:36;;;;;;;6.03;1.20;;;14.00;94.80;;;;;;5012732;28;20034;-66
2022/11/17 10:14:10;;;;;;;4.18;0.80;;;14.10;94.60;;;;;;5017567;28;20018;-66
2022/11/17 10:16:39;;;;;;;6.32;1.50;;;14.00;94.40;;;;;;5017374;28;20037;-67
2022/11/17 10:19:27;;;;;;;6.68;1.30;;;14.00;94.60;;;;;;5019288;28;20032;-67
2022/11/17 10:22:04;;;;;;;8.57;0.95;;;14.00;95.00;;;;;;5021757;28;20029;-66
2022/11/17 10:24:37;;;;;;;4.78;1.02;;;13.90;95.10;;;;;;5028941;28;20067;-66
2022/11/17 10:27:27;;;;;;;4.78;1.10;;;13.90;95.40;;;;;;5018846;28;20026;-66
2022/11/17 10:30:22;;;;;;;11.95;1.45;;;13.80;95.30;;;;;;5023893;28;20495;-66
2022/11/17 10:32:52;;;;;;;5.45;1.45;;;13.60;96.20;;;;;;5004775;28;20057;-67
2022/11/17 10:35:29;;;;;;;6.43;1.80;;;13.40;96.10;;;;;;5017584;28;20581;-66
2022/11/17 10:38:15;;;;;;;5.05;0.95;;;13.40;96.50;;;;;;5015241;28;20033;-65
2022/11/17 10:40:50;;;;;;;6.43;1.10;;;13.20;96.70;;;;;;5024326;28;20018;-66
2022/11/17 10:43:35;;;;;;;5.55;1.00;;;13.00;97.40;;;;;;5014034;28;20080;-65
2022/11/17 10:46:01;;;;;;;;;;;12.90;98.40;;;;;;5020109;28;20033;-66
2022/11/17 10:48:34;;;;;;;5.03;1.08;;;12.90;99.40;;;;;;5021867;28;19943;-67
2022/11/17 10:51:20;;;;;;;6.88;1.00;;;12.90;99.00;;;;;;5012393;28;20805;-66
2022/11/17 10:54:19;;;;;;;4.70;1.52;;;12.90;99.90;;;;;;5019715;28;20120;-68
2022/11/17 10:56:54;;;;;;;4.90;1.05;;;12.90;99.90;;;;;;5014032;28;20029;-63
2022/11/17 10:59:27;;;;;;;8.02;1.13;;;12.90;99.90;;;;;;5016366;28;20451;-67
2022/11/17 11:01:54;;;;;;;8.23;2.30;;;12.90;99.90;;;;;;5027631;28;20378;-65
2022/11/17 11:04:38;;;;;;;4.78;1.13;;;12.80;99.90;;;;;;5014559;28;20037;-66
2022/11/17 11:07:14;;;;;;;2.00;1.10;;;12.70;99.90;;;;;;5017828;28;20022;-64
2022/11/17 11:10:21;;;;;;;8.02;1.50;;;12.70;99.90;;;;;;5006667;28;20029;-64
2022/11/17 11:12:48;;;;;;;7.03;1.13;;;12.60;99.90;;;;;;5013678;28;20021;-65
2022/11/17 11:15:22;;;;;;;7.70;1.33;;;12.70;99.90;;;;;;5017057;28;20072;-66
2022/11/17 11:17:50;;;;;;;11.27;1.67;;;12.70;99.90;;;;;;5014458;28;20144;-66
2022/11/17 11:20:40;;;;;;;8.25;1.30;;;12.70;99.90;;;;;;5012690;28;20426;-66
2022/11/17 11:23:40;;;;;;;6.38;1.27;;;12.70;99.90;;;;;;5013912;28;20037;-65
2022/11/17 11:26:11;;;;;;;13.15;2.40;;;12.70;99.90;;;;;;5008357;28;20722;-66
2022/11/17 11:29:04;;;;;;;12.05;2.00;;;12.80;99.90;;;;;;5019620;28;20036;-66
2022/11/17 11:32:09;;;;;;;9.07;1.65;;;12.70;99.90;;;;;;5015284;28;20041;-65
2022/11/17 11:35:14;;;;;;;6.10;1.55;;;12.80;99.90;;;;;;5012698;28;20060;-66
2022/11/17 11:38:12;;;;;;;6.35;1.55;;;12.90;99.90;;;;;;5010220;28;20030;-65
2022/11/17 11:40:43;;;;;;;9.38;1.88;;;12.90;99.90;;;;;;5019946;28;20022;-66
2022/11/17 11:43:49;;;;;;;9.05;1.33;;;13.00;99.90;;;;;;5019191;28;20081;-66
2022/11/17 11:46:18;;;;;;;;;;;13.10;99.90;;;;;;5022315;28;20041;-63
2022/11/17 11:48:48;;;;;;;15.40;1.50;;;13.20;99.90;;;;;;5012341;28;19984;-66
2022/11/17 11:51:18;;;;;;;6.63;1.73;;;13.30;99.90;;;;;;5015680;28;20551;-65
2022/11/17 11:54:15;;;;;;;8.02;1.48;;;13.40;99.90;;;;;;5020476;28;20083;-65
2022/11/17 11:56:47;;;;;;;7.10;1.40;;;13.50;99.90;;;;;;5009103;28;20083;-66
2022/11/17 11:59:35;;;;;;;13.80;1.70;;;13.60;99.90;;;;;;5016148;28;20017;-65
2022/11/17 12:02:12;;;;;;;7.25;1.67;;;13.70;99.90;;;;;;5013537;28;20117;-65
2022/11/17 12:05:03;;;;;;;8.38;1.55;;;13.80;99.60;;;;;;5015555;28;20080;-66
2022/11/17 12:07:50;;;;;;;8.63;1.40;;;13.80;99.30;;;;;;5024984;28;20029;-65
2022/11/17 12:10:24;;;;;;;8.43;1.42;;;13.90;99.10;;;;;;5007927;28;20545;-66
2022/11/17 12:12:51;;;;;;;11.35;2.13;;;13.90;98.90;;;;;;5013262;28;20041;-65
2022/11/17 12:15:18;;;;;;;11.68;1.45;;;14.00;98.60;;;;;;5016123;28;20026;-64
2022/11/17 12:18:00;;;;;;;8.60;1.88;;;14.00;98.20;;;;;;5020750;28;20453;-65
2022/11/17 12:20:40;;;;;;;10.05;3.00;;;14.00;98.40;;;;;;5005005;28;20105;-65
2022/11/17 12:23:25;;;;;;;4.80;1.63;;;14.10;98.10;;;;;;5006216;28;20041;-66
2022/11/17 12:25:58;;;;;;;7.03;1.60;;;14.10;98.20;;;;;;5014459;28;20066;-65
2022/11/17 12:28:37;;;;;;;8.75;1.52;;;14.10;98.30;;;;;;5006470;28;20487;-66
2022/11/17 12:31:31;;;;;;;8.77;1.85;;;14.10;98.00;;;;;;5006300;28;20092;-66
2022/11/17 12:34:01;;;;;;;10.10;1.27;;;14.10;98.00;;;;;;5004549;28;20513;-66
2022/11/17 12:36:35;;;;;;;10.68;1.52;;;14.10;98.00;;;;;;5004866;28;20026;-65
2022/11/17 12:39:28;;;;;;;10.17;1.73;;;14.10;98.10;;;;;;4989541;28;20026;-65
2022/11/17 12:42:06;;;;;;;9.60;1.98;;;14.10;98.20;;;;;;4990022;28;20026;-65
2022/11/17 12:44:46;;;;;;;6.55;1.15;;;14.10;98.00;;;;;;4988232;28;20400;-66
2022/11/17 12:47:14;;;;;;;4.65;2.03;;;14.10;98.00;;;;;;5003611;28;20022;-66
2022/11/17 12:50:19;;;;;;;7.43;1.92;;;14.10;97.90;;;;;;4997941;28;20030;-65
2022/11/17 12:52:56;;;;;;;4.18;1.15;;;14.10;97.90;;;;;;5002042;28;20018;-64
2022/11/17 12:55:32;;;;;;;8.88;1.10;;;14.10;98.00;;;;;;5007590;28;20022;-66
2022/11/17 12:58:28;;;;;;;4.28;1.52;;;14.20;97.70;;;;;;5004933;28;20100;-66
2022/11/17 13:01:32;;;;;;;5.40;1.13;;;14.10;97.60;;;;;;4989256;28;20019;-67
2022/11/17 13:04:08;;;;;;;6.03;1.00;;;14.10;97.80;;;;;;4998553;28;20041;-66
2022/11/17 13:06:35;;;;;;;6.40;1.10;;;14.20;97.20;;;;;;5023145;28;20522;-67
2022/11/17 13:09:06;;;;;;;9.00;1.63;;;14.20;97.50;;;;;;5001745;28;20022;-65
2022/11/17 13:11:34;;;;;;;12.50;1.23;;;14.20;97.40;;;;;;4989225;28;20019;-67
2022/11/17 13:14:15;;;;;;;3.95;1.25;;;14.20;96.70;;;;;;4995945;28;20029;-66
2022/11/17 13:16:46;;;;;;;4.65;1.00;;;14.20;96.90;;;;;;5022879;28;20026;-65
2022/11/17 13:19:34;;;;;;;8.43;1.30;;;14.20;96.70;;;;;;5009157;28;20057;-65
2022/11/17 13:22:12;;;;;;;9.63;1.60;;;14.10;96.70;;;;;;5008685;28;20033;-64
2022/11/17 13:24:43;;;;;;;4.80;1.05;;;14.20;96.40;;;;;;5011820;28;20096;-65
2022/11/17 13:27:28;;;;;;;10.45;1.52;;;14.20;96.70;;;;;;4992866;28;20033;-65
2022/11/17 13:30:20;;;;;;;9.63;1.48;;;14.20;97.00;;;;;;5011329;28;20496;-65
2022/11/17 13:32:48;;;;;;;8.98;1.30;;;14.20;97.10;;;;;;5044102;28;20045;-66
2022/11/17 13:35:32;;;;;;;4.82;1.58;;;14.10;96.90;;;;;;5013340;28;20156;-66
2022/11/17 13:38:18;;;;;;;7.07;1.45;;;14.10;97.00;;;;;;5008359;28;20756;-65
2022/11/17 13:40:47;;;;;;;6.63;1.08;;;14.10;97.40;;;;;;5005646;28;20034;-65
2022/11/17 13:43:18;;;;;;;10.45;1.83;;;14.10;97.40;;;;;;5004480;28;20026;-65
2022/11/17 13:45:46;;;;;;;11.93;1.65;;;14.10;97.60;;;;;;4997923;28;20403;-64
2022/11/17 13:48:36;;;;;;;13.48;3.15;;;14.10;97.50;;;;;;4996396;28;20069;-65
2022/11/17 13:51:23;;;;;;;13.88;1.42;;;14.10;97.70;;;;;;5008916;28;20026;-65